Time;durP1;ratioP1;P1;durP2;ratioP2;P2;SDS_P1;SDS_P2;PMS_P1;PMS_P2;Temp;Humidity;BMP_temperature;BMP_pressure;BME280_temperature;BME280_humidity;BME280_pressure;Samples;Min_cycle;Max_cycle;Signal;HPM_P1;HPM_P2
2024/01/15 00:02:03;;;;;;;9.73;6.27;;;;;1.90;99584.00;;;;4853155;29;20274;-68
2024/01/15 00:04:49;;;;;;;11.43;6.50;;;;;2.00;99599.00;;;;4857543;29;20298;-68
2024/01/15 00:07:36;;;;;;;12.97;6.27;;;;;2.00;99603.00;;;;4859446;29;20777;-68
2024/01/15 00:10:24;;;;;;;12.47;6.47;;;;;2.00;99590.00;;;;4847362;29;20308;-68
2024/01/15 00:13:10;;;;;;;11.23;6.07;;;;;2.00;99585.00;;;;4861971;29;21799;-67
2024/01/15 00:15:56;;;;;;;11.70;6.10;;;;;2.00;99583.00;;;;4855943;29;20292;-68
2024/01/15 00:18:43;;;;;;;8.87;5.70;;;;;2.00;99568.00;;;;4847653;29;20366;-67
2024/01/15 00:21:30;;;;;;;7.30;5.77;;;;;2.00;99568.00;;;;4854561;29;20299;-67
2024/01/15 00:24:16;;;;;;;10.47;5.17;;;;;2.10;99578.00;;;;4859026;29;20232;-67
2024/01/15 00:27:04;;;;;;;11.50;5.97;;;;;2.00;99574.00;;;;4854042;29;20349;-67
2024/01/15 00:29:51;;;;;;;14.83;8.00;;;;;2.00;99556.00;;;;4856831;29;20273;-67
2024/01/15 00:32:38;;;;;;;10.37;5.57;;;;;2.00;99572.00;;;;4849336;29;20250;-68
2024/01/15 00:35:24;;;;;;;11.23;5.33;;;;;1.90;99568.00;;;;4855736;29;20234;-67
2024/01/15 00:38:11;;;;;;;9.73;6.27;;;;;2.00;99562.00;;;;4862051;29;20289;-67
2024/01/15 00:40:57;;;;;;;10.90;5.57;;;;;2.00;99567.00;;;;4864446;29;20252;-67
2024/01/15 00:43:45;;;;;;;9.77;4.60;;;;;2.00;99579.00;;;;4857843;29;20312;-69
2024/01/15 00:46:31;;;;;;;9.23;5.20;;;;;2.00;99574.00;;;;4861271;29;20248;-67
2024/01/15 00:49:17;;;;;;;12.80;5.43;;;;;2.00;99564.00;;;;4866447;29;20231;-68
2024/01/15 00:52:05;;;;;;;7.87;6.00;;;;;2.00;99564.00;;;;4864952;29;20378;-68
2024/01/15 00:54:51;;;;;;;14.60;6.17;;;;;2.00;99573.00;;;;4858643;29;20261;-66
2024/01/15 00:57:37;;;;;;;8.10;5.50;;;;;2.20;99562.00;;;;4859699;29;20236;-67
2024/01/15 01:00:25;;;;;;;12.93;5.63;;;;;2.20;99553.00;;;;4853037;29;20887;-65
2024/01/15 01:03:11;;;;;;;14.57;6.37;;;;;2.20;99556.00;;;;4862713;29;20322;-63
2024/01/15 01:05:58;;;;;;;14.00;6.40;;;;;2.20;99551.00;;;;4850387;29;20382;-67
2024/01/15 01:08:44;;;;;;;12.53;6.03;;;;;2.10;99547.00;;;;4860159;29;20234;-68
2024/01/15 01:11:30;;;;;;;10.70;5.43;;;;;2.10;99539.00;;;;4852126;29;20607;-68
2024/01/15 01:14:17;;;;;;;9.80;4.43;;;;;2.20;99538.00;;;;4857972;29;20316;-65
2024/01/15 01:17:04;;;;;;;16.30;7.63;;;;;2.20;99543.00;;;;4861091;29;20334;-67
2024/01/15 01:19:51;;;;;;;9.63;5.77;;;;;2.10;99535.00;;;;4861759;29;20345;-68
2024/01/15 01:22:37;;;;;;;9.70;4.83;;;;;2.10;99532.00;;;;4868083;29;20268;-68
2024/01/15 01:25:23;;;;;;;16.77;7.63;;;;;2.10;99524.00;;;;4848522;29;20357;-69
2024/01/15 01:28:10;;;;;;;13.57;6.80;;;;;2.10;99524.00;;;;4862902;29;20249;-68
2024/01/15 01:30:56;;;;;;;13.70;7.07;;;;;2.10;99522.00;;;;4863283;29;20229;-68
2024/01/15 01:33:44;;;;;;;13.20;5.77;;;;;2.10;99531.00;;;;4854088;29;20258;-68
2024/01/15 01:36:32;;;;;;;12.57;6.80;;;;;2.20;99533.00;;;;4861621;29;20294;-67
2024/01/15 01:39:18;;;;;;;7.63;5.03;;;;;2.10;99518.00;;;;4857862;29;20728;-68
2024/01/15 01:42:06;;;;;;;12.57;6.00;;;;;2.10;99510.00;;;;4858879;29;20323;-67
2024/01/15 01:44:52;;;;;;;10.93;5.67;;;;;2.20;99509.00;;;;4866244;29;20241;-68
2024/01/15 01:47:39;;;;;;;13.77;7.00;;;;;2.10;99518.00;;;;4855042;29;20244;-68
2024/01/15 01:50:27;;;;;;;10.87;6.07;;;;;2.10;99529.00;;;;4861307;29;20246;-68
2024/01/15 01:53:14;;;;;;;10.30;4.97;;;;;2.10;99521.00;;;;4865377;29;20279;-68
2024/01/15 01:56:01;;;;;;;9.33;6.13;;;;;2.10;99515.00;;;;4864775;29;20249;-67
2024/01/15 01:58:48;;;;;;;7.70;4.53;;;;;2.10;99512.00;;;;4862196;29;20725;-68
2024/01/15 02:01:35;;;;;;;8.17;5.30;;;;;2.10;99523.00;;;;4865037;29;20281;-67
2024/01/15 02:04:23;;;;;;;5.77;3.83;;;;;2.10;99527.00;;;;4856506;29;20308;-68
2024/01/15 02:07:12;;;;;;;11.53;6.03;;;;;2.00;99535.00;;;;4863762;29;20249;-68
2024/01/15 02:09:59;;;;;;;7.93;5.00;;;;;2.00;99529.00;;;;4861873;29;20260;-67
2024/01/15 02:12:45;;;;;;;8.97;5.97;;;;;2.00;99525.00;;;;4857014;29;20234;-67
2024/01/15 02:15:32;;;;;;;9.73;4.73;;;;;2.10;99530.00;;;;4860871;29;20237;-68
2024/01/15 02:18:18;;;;;;;9.33;5.47;;;;;2.00;99525.00;;;;4863744;29;20700;-64
2024/01/15 02:21:05;;;;;;;12.23;5.87;;;;;2.10;99527.00;;;;4861275;29;20246;-66
2024/01/15 02:23:52;;;;;;;13.23;6.07;;;;;2.10;99521.00;;;;4862433;29;20329;-64
2024/01/15 02:26:39;;;;;;;7.93;4.93;;;;;2.10;99520.00;;;;4859277;29;20235;-68
2024/01/15 02:29:25;;;;;;;9.23;5.10;;;;;2.00;99528.00;;;;4857248;29;20238;-68
2024/01/15 02:32:12;;;;;;;7.93;4.70;;;;;2.00;99523.00;;;;4862734;29;20248;-69
2024/01/15 02:34:58;;;;;;;6.63;4.33;;;;;2.00;99519.00;;;;4862441;29;20239;-68
2024/01/15 02:37:44;;;;;;;8.03;5.27;;;;;2.00;99523.00;;;;4860847;29;20249;-67
2024/01/15 02:40:32;;;;;;;7.47;5.00;;;;;1.90;99528.00;;;;4868143;29;20236;-69
2024/01/15 02:43:19;;;;;;;6.53;4.13;;;;;1.90;99530.00;;;;4869438;29;20246;-68
2024/01/15 02:46:06;;;;;;;8.33;5.53;;;;;2.00;99524.00;;;;4859584;29;20240;-69
2024/01/15 02:48:52;;;;;;;5.93;4.67;;;;;2.00;99532.00;;;;4857531;29;20302;-69
2024/01/15 02:51:38;;;;;;;13.30;4.40;;;;;2.10;99539.00;;;;4871229;29;20307;-68
2024/01/15 02:54:25;;;;;;;6.43;4.57;;;;;2.00;99526.00;;;;4853743;29;20329;-68
2024/01/15 02:57:12;;;;;;;8.73;5.60;;;;;2.00;99529.00;;;;4860608;29;20912;-68
2024/01/15 02:59:59;;;;;;;4.33;2.80;;;;;2.00;99529.00;;;;4865532;29;20278;-68
2024/01/15 03:02:45;;;;;;;8.70;4.20;;;;;2.00;99527.00;;;;4866149;29;20260;-68
2024/01/15 03:05:34;;;;;;;8.03;5.93;;;;;2.00;99527.00;;;;4864957;29;20885;-68
2024/01/15 03:08:22;;;;;;;9.17;4.50;;;;;2.00;99525.00;;;;4862281;29;20716;-68
2024/01/15 03:11:08;;;;;;;9.60;3.63;;;;;2.00;99538.00;;;;4861434;29;20248;-69
2024/01/15 03:13:56;;;;;;;9.07;4.33;;;;;2.00;99536.00;;;;4855392;29;20237;-64
2024/01/15 03:16:42;;;;;;;7.53;4.80;;;;;2.00;99529.00;;;;4854272;29;20720;-67
2024/01/15 03:19:28;;;;;;;3.87;3.43;;;;;2.00;99531.00;;;;4865436;29;20762;-68
2024/01/15 03:22:15;;;;;;;5.70;3.53;;;;;2.00;99530.00;;;;4856756;29;20241;-68
2024/01/15 03:25:01;;;;;;;5.47;3.73;;;;;2.00;99529.00;;;;4860406;29;20241;-68
2024/01/15 03:27:48;;;;;;;9.40;4.27;;;;;2.00;99533.00;;;;4859385;29;20264;-68
2024/01/15 03:30:35;;;;;;;7.50;3.90;;;;;2.00;99533.00;;;;4862234;29;20235;-66
2024/01/15 03:33:24;;;;;;;7.63;4.17;;;;;1.90;99527.00;;;;4864930;29;20239;-67
2024/01/15 03:36:10;;;;;;;7.20;4.57;;;;;2.00;99534.00;;;;4860323;29;20244;-68
2024/01/15 03:38:57;;;;;;;6.93;3.80;;;;;1.90;99524.00;;;;4860851;29;20251;-68
2024/01/15 03:41:43;;;;;;;6.33;4.60;;;;;1.90;99513.00;;;;4858661;29;20241;-69
2024/01/15 03:44:30;;;;;;;5.10;4.00;;;;;1.90;99505.00;;;;4863780;29;20365;-68
2024/01/15 03:47:18;;;;;;;7.30;5.03;;;;;2.00;99513.00;;;;4862330;29;20838;-68
2024/01/15 03:50:04;;;;;;;7.30;4.87;;;;;1.90;99506.00;;;;4864412;29;20806;-67
2024/01/15 03:52:50;;;;;;;5.17;4.60;;;;;1.90;99510.00;;;;4857779;29;20296;-68
2024/01/15 03:55:36;;;;;;;5.63;3.67;;;;;2.00;99512.00;;;;4858216;29;20260;-68
2024/01/15 03:58:23;;;;;;;9.37;5.50;;;;;1.90;99495.00;;;;4863910;29;20236;-68
2024/01/15 04:01:10;;;;;;;8.53;4.53;;;;;2.00;99498.00;;;;4845039;29;20238;-68
2024/01/15 04:03:57;;;;;;;5.67;3.93;;;;;2.00;99498.00;;;;4851666;29;20251;-68
2024/01/15 04:06:44;;;;;;;8.70;4.00;;;;;2.00;99506.00;;;;4853732;29;20234;-68
2024/01/15 04:09:30;;;;;;;9.70;5.07;;;;;1.90;99488.00;;;;4861873;29;20239;-68
2024/01/15 04:12:16;;;;;;;9.07;3.97;;;;;2.00;99507.00;;;;4860493;29;20240;-67
2024/01/15 04:15:03;;;;;;;6.90;4.23;;;;;1.90;99496.00;;;;4857449;29;20289;-68
2024/01/15 04:17:49;;;;;;;6.23;4.70;;;;;1.90;99503.00;;;;4868397;29;20260;-67
2024/01/15 04:20:36;;;;;;;8.50;5.10;;;;;1.90;99499.00;;;;4863030;29;20241;-67
2024/01/15 04:23:23;;;;;;;5.70;3.67;;;;;1.90;99487.00;;;;4860828;29;20238;-68
2024/01/15 04:26:09;;;;;;;7.67;4.53;;;;;1.90;99495.00;;;;4866845;29;20343;-68
2024/01/15 04:28:55;;;;;;;8.93;5.13;;;;;1.90;99502.00;;;;4852099;29;20294;-68
2024/01/15 04:31:42;;;;;;;7.27;4.80;;;;;2.00;99485.00;;;;4863072;29;20342;-67
2024/01/15 04:34:28;;;;;;;10.00;4.33;;;;;1.90;99491.00;;;;4866468;29;20237;-67
2024/01/15 04:37:16;;;;;;;8.13;4.17;;;;;2.00;99482.00;;;;4860385;29;20243;-68
2024/01/15 04:40:03;;;;;;;5.83;4.10;;;;;2.00;99475.00;;;;4858827;29;20232;-69
2024/01/15 04:42:50;;;;;;;4.57;3.87;;;;;1.90;99468.00;;;;4857443;29;20324;-68
2024/01/15 04:45:36;;;;;;;6.37;4.47;;;;;2.00;99468.00;;;;4868738;29;20882;-68
2024/01/15 04:48:23;;;;;;;12.83;4.87;;;;;1.90;99470.00;;;;4858052;29;20247;-67
2024/01/15 04:51:10;;;;;;;8.70;3.63;;;;;1.90;99452.00;;;;4860105;29;20289;-68
2024/01/15 04:53:58;;;;;;;6.10;3.90;;;;;1.90;99449.00;;;;4867889;29;20236;-68
2024/01/15 04:56:44;;;;;;;5.60;4.00;;;;;1.90;99466.00;;;;4849501;29;20238;-68
2024/01/15 04:59:31;;;;;;;9.77;4.03;;;;;2.00;99446.00;;;;4857187;29;20245;-68
2024/01/15 05:02:17;;;;;;;5.30;3.37;;;;;1.90;99463.00;;;;4865619;29;20239;-67
2024/01/15 05:05:04;;;;;;;4.87;3.00;;;;;1.90;99454.00;;;;4852237;29;20312;-67
2024/01/15 05:07:50;;;;;;;5.73;2.73;;;;;1.90;99454.00;;;;4857805;29;20249;-68
2024/01/15 05:10:38;;;;;;;4.83;3.00;;;;;2.00;99460.00;;;;4859601;29;20282;-68
2024/01/15 05:13:24;;;;;;;3.80;3.33;;;;;1.90;99456.00;;;;4862164;29;20748;-68
2024/01/15 05:16:10;;;;;;;5.17;3.37;;;;;1.90;99459.00;;;;4863329;29;20230;-70
2024/01/15 05:18:57;;;;;;;4.47;3.03;;;;;2.00;99461.00;;;;4853329;29;20372;-67
2024/01/15 05:21:43;;;;;;;3.83;3.23;;;;;2.00;99446.00;;;;4865836;29;20241;-67
2024/01/15 05:24:29;;;;;;;5.30;2.63;;;;;1.90;99447.00;;;;4862180;29;20260;-68
2024/01/15 05:27:17;;;;;;;11.00;3.90;;;;;1.90;99452.00;;;;4866009;29;20240;-67
2024/01/15 05:30:05;;;;;;;3.60;2.80;;;;;1.90;99445.00;;;;4860895;29;20240;-68
2024/01/15 05:32:51;;;;;;;2.93;2.63;;;;;2.00;99443.00;;;;4867233;29;20323;-67
2024/01/15 05:35:37;;;;;;;11.27;4.67;;;;;2.00;99447.00;;;;4861082;29;20262;-67
2024/01/15 05:38:24;;;;;;;4.10;3.00;;;;;2.00;99448.00;;;;4864026;29;20235;-66
2024/01/15 05:41:11;;;;;;;7.23;3.63;;;;;2.00;99443.00;;;;4864881;29;20792;-69
2024/01/15 05:43:58;;;;;;;4.57;3.13;;;;;2.00;99448.00;;;;4852125;29;20240;-69
2024/01/15 05:46:45;;;;;;;7.23;3.33;;;;;2.00;99449.00;;;;4864620;29;20316;-69
2024/01/15 05:49:31;;;;;;;4.30;3.00;;;;;2.00;99446.00;;;;4854240;29;20237;-69
2024/01/15 05:52:17;;;;;;;4.33;3.50;;;;;2.00;99435.00;;;;4855232;29;20244;-65
2024/01/15 05:55:05;;;;;;;5.27;3.50;;;;;2.00;99430.00;;;;4860465;29;20329;-68
2024/01/15 05:57:52;;;;;;;5.30;2.87;;;;;2.00;99446.00;;;;4854966;29;20236;-68
2024/01/15 06:00:39;;;;;;;4.80;3.73;;;;;2.00;99451.00;;;;4857423;29;20833;-70
2024/01/15 06:03:26;;;;;;;2.73;2.47;;;;;2.00;99445.00;;;;4862908;29;20237;-68
2024/01/15 06:06:12;;;;;;;3.33;3.10;;;;;2.10;99436.00;;;;4849454;29;20228;-67
2024/01/15 06:09:04;;;;;;;4.87;3.47;;;;;2.10;99430.00;;;;4850471;29;20244;-68
2024/01/15 06:11:51;;;;;;;3.80;3.33;;;;;2.00;99429.00;;;;4852259;29;20881;-68
2024/01/15 06:14:37;;;;;;;3.90;2.30;;;;;2.10;99431.00;;;;4843761;29;20240;-69
2024/01/15 06:17:25;;;;;;;5.53;3.73;;;;;2.10;99426.00;;;;4858997;29;20242;-69
2024/01/15 06:20:12;;;;;;;4.73;3.10;;;;;2.00;99427.00;;;;4849769;29;20704;-69
2024/01/15 06:22:59;;;;;;;5.17;2.67;;;;;2.00;99421.00;;;;4856876;29;20239;-68
2024/01/15 06:25:45;;;;;;;4.67;3.10;;;;;2.00;99418.00;;;;4859074;29;20232;-69
2024/01/15 06:28:32;;;;;;;3.37;2.63;;;;;2.00;99415.00;;;;4853129;29;20231;-69
2024/01/15 06:31:18;;;;;;;3.10;2.77;;;;;2.10;99424.00;;;;4865038;29;20243;-68
2024/01/15 06:34:06;;;;;;;5.13;3.20;;;;;2.00;99424.00;;;;4854775;29;20233;-68
2024/01/15 06:36:52;;;;;;;7.13;3.63;;;;;2.10;99430.00;;;;4858332;29;20240;-66
2024/01/15 06:39:39;;;;;;;4.70;2.77;;;;;2.10;99430.00;;;;4855539;29;20252;-69
2024/01/15 06:42:26;;;;;;;3.90;2.70;;;;;2.00;99418.00;;;;4861206;29;20248;-66
2024/01/15 06:45:12;;;;;;;8.50;3.23;;;;;2.00;99421.00;;;;4860685;29;20239;-68
2024/01/15 06:47:59;;;;;;;4.53;3.03;;;;;2.00;99424.00;;;;4850412;29;20233;-68
2024/01/15 06:50:46;;;;;;;3.47;3.10;;;;;2.00;99435.00;;;;4852947;29;20311;-66
2024/01/15 06:53:33;;;;;;;4.53;3.43;;;;;2.00;99423.00;;;;4860375;29;20729;-69
2024/01/15 06:56:19;;;;;;;11.23;4.13;;;;;2.00;99432.00;;;;4854628;29;20234;-68
2024/01/15 06:59:05;;;;;;;3.10;2.77;;;;;2.00;99427.00;;;;4854029;29;20226;-68
2024/01/15 07:01:52;;;;;;;3.53;2.73;;;;;2.00;99427.00;;;;4861339;29;20243;-70
2024/01/15 07:04:38;;;;;;;4.53;3.63;;;;;2.00;99431.00;;;;4860484;29;20300;-70
2024/01/15 07:07:30;;;;;;;4.30;3.00;;;;;2.00;99418.00;;;;4861441;29;20243;-69
2024/01/15 07:10:18;;;;;;;4.27;3.03;;;;;2.10;99428.00;;;;4856734;29;20325;-69
2024/01/15 07:13:05;;;;;;;3.17;2.40;;;;;2.10;99428.00;;;;4854801;29;20241;-70
2024/01/15 07:15:51;;;;;;;3.57;2.50;;;;;2.10;99429.00;;;;4870539;29;20301;-70
2024/01/15 07:18:38;;;;;;;3.93;3.23;;;;;2.10;99418.00;;;;4857539;29;20233;-66
2024/01/15 07:21:24;;;;;;;4.27;3.10;;;;;2.10;99420.00;;;;4865201;29;20264;-69
2024/01/15 07:24:12;;;;;;;6.90;3.73;;;;;2.10;99410.00;;;;4854385;29;20609;-71
2024/01/15 07:26:59;;;;;;;3.50;2.60;;;;;2.10;99424.00;;;;4865514;29;20230;-69
2024/01/15 07:29:45;;;;;;;2.67;2.30;;;;;2.10;99427.00;;;;4860370;29;20235;-70
2024/01/15 07:32:31;;;;;;;2.60;2.10;;;;;2.10;99436.00;;;;4851804;29;20237;-70
2024/01/15 07:35:18;;;;;;;3.00;1.10;;;;;2.10;99429.00;;;;4860908;29;20662;-71
2024/01/15 07:38:04;;;;;;;3.00;2.20;;;;;2.20;99418.00;;;;4856946;29;20731;-70
2024/01/15 07:40:53;;;;;;;3.33;2.27;;;;;2.20;99433.00;;;;4857036;29;20366;-70
2024/01/15 07:43:40;;;;;;;6.53;2.63;;;;;2.20;99432.00;;;;4846940;29;20235;-70
2024/01/15 07:46:26;;;;;;;2.53;2.00;;;;;2.20;99429.00;;;;4857952;29;20645;-72
2024/01/15 07:49:13;;;;;;;2.23;2.03;;;;;2.20;99436.00;;;;4854653;29;20241;-70
2024/01/15 07:51:59;;;;;;;4.53;1.80;;;;;2.20;99443.00;;;;4853224;29;20621;-70
2024/01/15 07:54:45;;;;;;;5.33;1.73;;;;;2.20;99438.00;;;;4858811;29;20399;-68
2024/01/15 07:57:33;;;;;;;1.73;1.63;;;;;2.30;99433.00;;;;4861648;29;20260;-71
2024/01/15 08:00:19;;;;;;;1.37;1.27;;;;;2.30;99432.00;;;;4851809;29;20714;-71
2024/01/15 08:03:06;;;;;;;2.40;1.93;;;;;2.20;99436.00;;;;4847353;29;20623;-72
2024/01/15 08:05:54;;;;;;;2.40;1.53;;;;;2.20;99438.00;;;;4854775;29;20320;-71
2024/01/15 08:08:40;;;;;;;3.73;1.87;;;;;2.20;99425.00;;;;4851581;29;20923;-70
2024/01/15 08:11:26;;;;;;;1.60;1.30;;;;;2.20;99431.00;;;;4851691;29;20260;-71
2024/01/15 08:14:14;;;;;;;1.50;1.40;;;;;2.20;99428.00;;;;4843975;29;20333;-71
2024/01/15 08:17:01;;;;;;;2.03;1.90;;;;;2.20;99417.00;;;;4853910;29;20246;-72
2024/01/15 08:19:47;;;;;;;2.47;2.27;;;;;2.20;99421.00;;;;4848461;29;20861;-70
2024/01/15 08:22:34;;;;;;;2.60;2.37;;;;;2.20;99426.00;;;;4844329;29;20239;-70
2024/01/15 08:25:21;;;;;;;2.10;1.90;;;;;2.10;99429.00;;;;4855083;29;20311;-71
2024/01/15 08:28:08;;;;;;;2.10;1.90;;;;;2.10;99420.00;;;;4844233;29;20381;-72
2024/01/15 08:30:55;;;;;;;1.63;1.53;;;;;2.10;99430.00;;;;4852055;29;20762;-70
2024/01/15 08:33:42;;;;;;;2.70;1.50;;;;;2.10;99430.00;;;;4854381;29;20330;-72
2024/01/15 08:36:29;;;;;;;3.33;1.87;;;;;2.20;99428.00;;;;4856076;29;20618;-72
2024/01/15 08:39:15;;;;;;;1.73;1.63;;;;;2.20;99427.00;;;;4846900;29;20359;-71
2024/01/15 08:42:02;;;;;;;2.20;2.00;;;;;2.20;99424.00;;;;4856001;29;20297;-70
2024/01/15 08:44:48;;;;;;;1.83;1.73;;;;;2.30;99429.00;;;;4859945;29;20239;-68
2024/01/15 08:47:36;;;;;;;3.17;1.60;;;;;2.30;99435.00;;;;4862362;29;20740;-72
2024/01/15 08:50:23;;;;;;;2.67;2.30;;;;;2.30;99436.00;;;;4859673;29;20263;-71
2024/01/15 08:53:09;;;;;;;7.33;2.53;;;;;2.30;99428.00;;;;4856773;29;20321;-71
2024/01/15 08:55:57;;;;;;;2.57;1.97;;;;;2.30;99440.00;;;;4853252;29;20723;-71
2024/01/15 08:58:43;;;;;;;2.23;1.70;;;;;2.30;99436.00;;;;4861112;29;20651;-68
2024/01/15 09:01:30;;;;;;;1.77;1.43;;;;;2.30;99434.00;;;;4855955;29;20246;-70
2024/01/15 09:04:18;;;;;;;2.90;2.33;;;;;2.20;99437.00;;;;4862346;29;20251;-71
2024/01/15 09:07:05;;;;;;;2.23;2.07;;;;;2.30;99452.00;;;;4855828;29;20241;-71
2024/01/15 09:09:51;;;;;;;1.77;1.60;;;;;2.40;99439.00;;;;4847488;29;20252;-71
2024/01/15 09:12:38;;;;;;;1.27;1.17;;;;;2.30;99427.00;;;;4856050;29;20238;-71
2024/01/15 09:15:25;;;;;;;1.77;1.53;;;;;2.20;99440.00;;;;4853819;29;20234;-70
2024/01/15 09:18:11;;;;;;;2.10;1.90;;;;;2.20;99431.00;;;;4841971;29;20236;-70
2024/01/15 09:20:59;;;;;;;1.97;1.80;;;;;2.30;99439.00;;;;4857778;29;20247;-71
2024/01/15 09:23:45;;;;;;;2.47;1.67;;;;;2.20;99432.00;;;;4862586;29;20282;-70
2024/01/15 09:26:32;;;;;;;1.50;1.37;;;;;2.30;99444.00;;;;4856497;29;20366;-70
2024/01/15 09:29:18;;;;;;;1.67;1.33;;;;;2.30;99427.00;;;;4852570;29;20302;-71
2024/01/15 09:32:05;;;;;;;2.70;1.70;;;;;2.20;99434.00;;;;4867737;29;20376;-70
2024/01/15 09:34:51;;;;;;;1.53;1.40;;;;;2.20;99431.00;;;;4857413;29;20263;-69
2024/01/15 09:37:40;;;;;;;2.07;1.80;;;;;2.20;99435.00;;;;4863801;29;20286;-69
2024/01/15 09:40:34;;;;;;;1.70;1.50;;;;;2.30;99432.00;;;;4857669;29;20941;-70
2024/01/15 09:43:20;;;;;;;2.50;1.93;;;;;2.30;99428.00;;;;4856679;29;20230;-69
2024/01/15 09:46:07;;;;;;;1.87;1.60;;;;;2.30;99430.00;;;;4847826;29;20253;-70
2024/01/15 09:48:53;;;;;;;2.10;1.97;;;;;2.30;99435.00;;;;4852700;29;20721;-70
2024/01/15 09:51:41;;;;;;;1.83;1.67;;;;;2.40;99419.00;;;;4865893;29;20269;-66
2024/01/15 09:54:28;;;;;;;1.60;1.50;;;;;2.50;99438.00;;;;4862878;29;20320;-70
2024/01/15 09:57:15;;;;;;;3.20;1.80;;;;;2.40;99443.00;;;;4869731;29;20394;-70
2024/01/15 10:00:04;;;;;;;1.80;1.70;;;;;2.40;99446.00;;;;4870060;29;20242;-70
2024/01/15 10:02:51;;;;;;;1.30;1.20;;;;;2.40;99456.00;;;;4860770;29;20345;-69
2024/01/15 10:05:37;;;;;;;1.37;1.27;;;;;2.40;99453.00;;;;4867601;29;20240;-70
2024/01/15 10:08:24;;;;;;;1.40;1.30;;;;;2.50;99456.00;;;;4863577;29;20236;-71
2024/01/15 10:11:12;;;;;;;1.27;1.10;;;;;2.40;99451.00;;;;4860166;29;20281;-67
2024/01/15 10:13:59;;;;;;;1.33;1.23;;;;;2.40;99447.00;;;;4861546;29;20335;-69
2024/01/15 10:16:45;;;;;;;1.90;1.47;;;;;2.40;99441.00;;;;4865402;29;20233;-69
2024/01/15 10:19:32;;;;;;;3.40;1.73;;;;;2.50;99443.00;;;;4859273;29;20242;-70
2024/01/15 10:22:18;;;;;;;1.10;1.10;;;;;2.50;99447.00;;;;4848690;29;20938;-68
2024/01/15 10:25:06;;;;;;;1.27;1.03;;;;;2.40;99446.00;;;;4862127;29;20244;-68
2024/01/15 10:28:02;;;;;;;1.37;1.00;;;;;2.40;99464.00;;;;4859345;29;20243;-70
2024/01/15 10:30:52;;;;;;;1.30;1.20;;;;;2.40;99459.00;;;;4868428;29;20249;-69
2024/01/15 10:33:39;;;;;;;1.50;0.83;;;;;2.50;99454.00;;;;4857090;29;20599;-70
2024/01/15 10:36:27;;;;;;;1.47;1.37;;;;;2.40;99434.00;;;;4856049;29;20300;-67
2024/01/15 10:39:14;;;;;;;1.37;1.37;;;;;2.40;99441.00;;;;4864730;29;20240;-71
2024/01/15 10:42:00;;;;;;;1.33;1.23;;;;;2.40;99437.00;;;;4856978;29;20236;-70
2024/01/15 10:44:48;;;;;;;3.13;1.50;;;;;2.40;99439.00;;;;4858298;29;20251;-69
2024/01/15 10:47:35;;;;;;;1.77;1.47;;;;;2.40;99433.00;;;;4854133;29;20382;-70
2024/01/15 10:50:22;;;;;;;5.57;1.17;;;;;2.50;99437.00;;;;4855066;29;20367;-70
2024/01/15 10:53:09;;;;;;;1.60;1.50;;;;;2.50;99437.00;;;;4858847;29;20727;-70
2024/01/15 10:55:57;;;;;;;1.90;1.63;;;;;2.50;99440.00;;;;4861523;29;20238;-69
2024/01/15 10:58:44;;;;;;;1.43;1.33;;;;;2.60;99434.00;;;;4848717;29;20230;-69
2024/01/15 11:01:34;;;;;;;1.47;1.37;;;;;2.50;99435.00;;;;4845946;29;20287;-69
2024/01/15 11:04:22;;;;;;;5.93;1.70;;;;;2.50;99448.00;;;;4865779;29;20362;-69
2024/01/15 11:07:10;;;;;;;2.43;1.97;;;;;2.60;99441.00;;;;4862336;29;20241;-69
2024/01/15 11:09:58;;;;;;;2.90;2.27;;;;;2.60;99431.00;;;;4858413;29;20252;-69
2024/01/15 11:12:48;;;;;;;1.43;1.33;;;;;2.60;99432.00;;;;4856200;29;20269;-70
2024/01/15 11:15:59;;;;;;;1.27;1.17;;;;;2.70;99427.00;;;;4854505;29;20238;-69
2024/01/15 11:19:06;;;;;;;1.93;1.30;;;;;2.80;99427.00;;;;4863539;29;20232;-69
2024/01/15 11:21:52;;;;;;;1.50;1.40;;;;;2.90;99439.00;;;;4863210;29;21045;-68
2024/01/15 11:24:39;;;;;;;3.00;2.10;;;;;2.90;99425.00;;;;4857697;29;20727;-70
2024/01/15 11:27:42;;;;;;;2.63;1.47;;;;;3.00;99431.00;;;;4857841;29;20234;-69
2024/01/15 11:30:28;;;;;;;2.50;2.30;;;;;3.00;99425.00;;;;4861200;29;20232;-70
2024/01/15 11:33:36;;;;;;;1.23;1.17;;;;;3.00;99418.00;;;;4862378;29;20277;-70
2024/01/15 11:37:04;;;;;;;4.73;2.13;;;;;3.10;99411.00;;;;4857600;29;20242;-70
2024/01/15 11:39:53;;;;;;;1.43;1.33;;;;;3.10;99413.00;;;;4855354;29;20613;-71
2024/01/15 11:42:40;;;;;;;1.70;1.60;;;;;2.90;99422.00;;;;4851092;29;20607;-71
2024/01/15 11:45:28;;;;;;;2.27;1.40;;;;;2.90;99419.00;;;;4846696;29;20241;-70
2024/01/15 11:48:15;;;;;;;1.27;1.17;;;;;2.90;99424.00;;;;4851823;29;20757;-69
2024/01/15 11:51:04;;;;;;;0.93;0.83;;;;;2.80;99419.00;;;;4861067;29;20238;-65
2024/01/15 11:53:56;;;;;;;5.67;1.73;;;;;2.80;99411.00;;;;4858181;29;20283;-71
2024/01/15 11:56:43;;;;;;;1.40;1.33;;;;;2.80;99414.00;;;;4852349;29;20246;-70
2024/01/15 11:59:29;;;;;;;1.50;1.17;;;;;2.70;99414.00;;;;4853020;29;20245;-70
2024/01/15 12:02:16;;;;;;;0.90;0.90;;;;;2.80;99419.00;;;;4859008;29;20339;-68
2024/01/15 12:05:02;;;;;;;1.03;0.93;;;;;2.80;99408.00;;;;4852366;29;20248;-68
2024/01/15 12:07:51;;;;;;;0.93;0.93;;;;;2.90;99417.00;;;;4857164;29;20328;-69
2024/01/15 12:10:40;;;;;;;0.97;0.93;;;;;3.00;99406.00;;;;4863830;29;20234;-69
2024/01/15 12:13:27;;;;;;;3.43;1.57;;;;;3.20;99411.00;;;;4860061;29;20737;-65
2024/01/15 12:16:14;;;;;;;1.23;1.13;;;;;3.00;99420.00;;;;4865104;29;20236;-69
2024/01/15 12:19:01;;;;;;;1.20;1.13;;;;;3.00;99423.00;;;;4864435;29;20297;-67
2024/01/15 12:21:47;;;;;;;2.20;1.30;;;;;2.90;99420.00;;;;4864272;29;20245;-68
2024/01/15 12:24:35;;;;;;;4.77;1.70;;;;;2.90;99421.00;;;;4853910;29;20236;-68
2024/01/15 12:27:22;;;;;;;1.40;1.30;;;;;2.90;99415.00;;;;4853293;29;20348;-70
2024/01/15 12:30:12;;;;;;;1.70;1.60;;;;;3.00;99405.00;;;;4856304;29;20957;-70
2024/01/15 12:32:58;;;;;;;1.90;1.50;;;;;3.00;99416.00;;;;4854389;29;20261;-68
2024/01/15 12:35:45;;;;;;;1.60;1.50;;;;;3.00;99428.00;;;;4856178;29;20222;-69
2024/01/15 12:38:32;;;;;;;3.43;2.47;;;;;3.10;99452.00;;;;4849871;29;20232;-69
2024/01/15 12:41:19;;;;;;;10.03;1.60;;;;;3.00;99436.00;;;;4858723;29;20984;-69
2024/01/15 12:44:06;;;;;;;3.87;1.50;;;;;3.00;99446.00;;;;4857186;29;20238;-68
2024/01/15 12:46:53;;;;;;;3.00;1.43;;;;;3.20;99436.00;;;;4857069;29;20239;-70
2024/01/15 12:49:40;;;;;;;2.57;2.37;;;;;3.10;99433.00;;;;4858821;29;20244;-68
2024/01/15 12:52:27;;;;;;;4.23;1.10;;;;;3.00;99445.00;;;;4857795;29;20375;-70
2024/01/15 12:55:16;;;;;;;2.43;2.20;;;;;3.10;99454.00;;;;4863599;29;20239;-68
2024/01/15 12:58:04;;;;;;;2.70;1.93;;;;;3.00;99446.00;;;;4858976;29;20312;-69
2024/01/15 13:00:51;;;;;;;1.70;1.60;;;;;3.00;99444.00;;;;4856988;29;20235;-69
2024/01/15 13:03:38;;;;;;;2.60;1.40;;;;;2.90;99442.00;;;;4843884;29;20348;-69
2024/01/15 13:06:25;;;;;;;1.13;1.13;;;;;3.00;99448.00;;;;4859826;29;20244;-69
2024/01/15 13:09:11;;;;;;;1.23;1.13;;;;;3.00;99446.00;;;;4860771;29;20287;-68
2024/01/15 13:11:58;;;;;;;1.50;1.40;;;;;3.10;99439.00;;;;4858035;29;20707;-68
2024/01/15 13:14:46;;;;;;;1.60;1.50;;;;;3.10;99444.00;;;;4857550;29;20228;-69
2024/01/15 13:17:33;;;;;;;3.83;1.53;;;;;3.00;99461.00;;;;4858440;29;20376;-68
2024/01/15 13:20:19;;;;;;;1.40;1.30;;;;;3.10;99447.00;;;;4858865;29;20238;-69
2024/01/15 13:23:06;;;;;;;1.37;1.27;;;;;3.00;99457.00;;;;4852629;29;20313;-70
2024/01/15 13:25:52;;;;;;;1.97;1.63;;;;;3.00;99475.00;;;;4852696;29;20702;-68
2024/01/15 13:28:38;;;;;;;1.07;1.00;;;;;2.90;99469.00;;;;4845412;29;20226;-68
2024/01/15 13:31:26;;;;;;;1.30;1.20;;;;;2.90;99480.00;;;;4855941;29;20307;-67
2024/01/15 13:34:13;;;;;;;1.40;1.30;;;;;2.90;99475.00;;;;4861608;29;20236;-67
2024/01/15 13:37:00;;;;;;;2.87;1.70;;;;;2.90;99468.00;;;;4851205;29;20797;-67
2024/01/15 13:39:46;;;;;;;1.30;1.20;;;;;3.00;99475.00;;;;4847671;29;20229;-69
2024/01/15 13:42:33;;;;;;;1.37;1.30;;;;;2.90;99454.00;;;;4860891;29;20259;-67
2024/01/15 13:45:20;;;;;;;1.00;1.00;;;;;3.00;99480.00;;;;4850903;29;20620;-69
2024/01/15 13:48:08;;;;;;;2.27;1.33;;;;;2.90;99477.00;;;;4857908;29;20584;-71
2024/01/15 13:50:54;;;;;;;1.00;1.00;;;;;2.90;99475.00;;;;4861024;29;20231;-69
2024/01/15 13:53:41;;;;;;;1.33;1.23;;;;;2.90;99484.00;;;;4859154;29;20242;-70
2024/01/15 13:56:31;;;;;;;2.50;1.10;;;;;2.80;99493.00;;;;4857010;29;20310;-71
2024/01/15 13:59:18;;;;;;;1.13;1.10;;;;;2.90;99493.00;;;;4855206;29;20250;-70
2024/01/15 14:02:04;;;;;;;1.00;1.00;;;;;3.00;99498.00;;;;4855744;29;20830;-70
2024/01/15 14:04:52;;;;;;;1.27;1.17;;;;;2.90;99493.00;;;;4845377;29;20252;-71
2024/01/15 14:07:39;;;;;;;4.47;1.03;;;;;3.00;99501.00;;;;4865161;29;20234;-72